sensor_id;sensor_type;location;lat;lon;timestamp;pressure;altitude;pressure_sealevel;temperature;humidity
69306;BME280;56427;51.580;4.656;2023-01-27T00:01:33;102495.69;;;4.92;100.00
69306;BME280;56427;51.580;4.656;2023-01-27T00:03:59;102495.06;;;4.85;100.00
69306;BME280;56427;51.580;4.656;2023-01-27T00:06:24;102500.19;;;4.85;100.00
69306;BME280;56427;51.580;4.656;2023-01-27T00:08:50;102504.44;;;4.86;100.00
69306;BME280;56427;51.580;4.656;2023-01-27T00:11:15;102502.97;;;4.79;100.00
69306;BME280;56427;51.580;4.656;2023-01-27T00:13:59;102504.25;;;4.92;100.00
69306;BME280;56427;51.580;4.656;2023-01-27T00:16:24;102501.03;;;4.86;100.00
69306;BME280;56427;51.580;4.656;2023-01-27T00:18:50;102485.72;;;4.81;100.00
69306;BME280;56427;51.580;4.656;2023-01-27T00:21:15;102500.63;;;4.71;100.00
69306;BME280;56427;51.580;4.656;2023-01-27T00:23:58;102494.44;;;4.77;100.00
69306;BME280;56427;51.580;4.656;2023-01-27T00:26:42;102496.06;;;4.79;100.00
69306;BME280;56427;51.580;4.656;2023-01-27T00:29:08;102491.75;;;4.80;100.00
69306;BME280;56427;51.580;4.656;2023-01-27T00:31:33;102503.09;;;4.74;100.00
69306;BME280;56427;51.580;4.656;2023-01-27T00:34:17;102499.66;;;4.75;100.00
69306;BME280;56427;51.580;4.656;2023-01-27T00:36:43;102502.25;;;4.74;100.00
69306;BME280;56427;51.580;4.656;2023-01-27T00:39:10;102502.97;;;4.79;100.00
69306;BME280;56427;51.580;4.656;2023-01-27T00:41:38;102489.78;;;4.61;100.00
69306;BME280;56427;51.580;4.656;2023-01-27T00:44:04;102489.53;;;4.69;100.00
69306;BME280;56427;51.580;4.656;2023-01-27T00:46:30;102500.66;;;4.70;100.00
69306;BME280;56427;51.580;4.656;2023-01-27T00:48:56;102500.75;;;4.67;100.00
69306;BME280;56427;51.580;4.656;2023-01-27T00:51:22;102492.91;;;4.71;100.00
69306;BME280;56427;51.580;4.656;2023-01-27T00:53:47;102490.31;;;4.71;100.00
69306;BME280;56427;51.580;4.656;2023-01-27T00:56:13;102500.66;;;4.70;100.00
69306;BME280;56427;51.580;4.656;2023-01-27T00:58:38;102501.44;;;4.72;100.00
69306;BME280;56427;51.580;4.656;2023-01-27T01:01:06;102497.59;;;4.58;100.00
69306;BME280;56427;51.580;4.656;2023-01-27T01:03:33;102492.34;;;4.61;100.00
69306;BME280;56427;51.580;4.656;2023-01-27T01:06:02;102495.72;;;4.64;100.00
69306;BME280;56427;51.580;4.656;2023-01-27T01:08:32;102507.97;;;4.55;100.00
69306;BME280;56427;51.580;4.656;2023-01-27T01:10:58;102506.84;;;4.64;100.00
69306;BME280;56427;51.580;4.656;2023-01-27T01:13:24;102499.88;;;4.68;100.00
69306;BME280;56427;51.580;4.656;2023-01-27T01:15:52;102497.16;;;4.72;100.00
69306;BME280;56427;51.580;4.656;2023-01-27T01:18:17;102504.16;;;4.69;100.00
69306;BME280;56427;51.580;4.656;2023-01-27T01:20:44;102505.28;;;4.58;100.00
69306;BME280;56427;51.580;4.656;2023-01-27T01:23:09;102516.94;;;4.70;100.00
69306;BME280;56427;51.580;4.656;2023-01-27T01:25:35;102515.25;;;4.69;100.00
69306;BME280;56427;51.580;4.656;2023-01-27T01:28:02;102513.00;;;4.58;100.00
69306;BME280;56427;51.580;4.656;2023-01-27T01:30:28;102511.91;;;4.67;100.00
69306;BME280;56427;51.580;4.656;2023-01-27T01:32:55;102507.59;;;4.68;100.00
69306;BME280;56427;51.580;4.656;2023-01-27T01:35:22;102517.06;;;4.67;100.00
69306;BME280;56427;51.580;4.656;2023-01-27T01:37:50;102507.97;;;4.55;100.00
69306;BME280;56427;51.580;4.656;2023-01-27T01:40:15;102496.88;;;4.53;100.00
69306;BME280;56427;51.580;4.656;2023-01-27T01:43:10;102499.47;;;4.53;100.00
69306;BME280;56427;51.580;4.656;2023-01-27T01:48:16;102502.69;;;4.60;100.00
69306;BME280;56427;51.580;4.656;2023-01-27T01:50:53;102504.56;;;4.55;100.00
69306;BME280;56427;51.580;4.656;2023-01-27T01:53:20;102503.88;;;4.50;100.00
69306;BME280;56427;51.580;4.656;2023-01-27T01:55:51;102503.81;;;4.51;100.00
69306;BME280;56427;51.580;4.656;2023-01-27T01:58:17;102497.28;;;4.41;100.00
69306;BME280;56427;51.580;4.656;2023-01-27T02:00:44;102503.16;;;4.45;100.00
69306;BME280;56427;51.580;4.656;2023-01-27T02:03:10;102499.00;;;4.40;100.00
69306;BME280;56427;51.580;4.656;2023-01-27T02:05:39;102497.94;;;4.48;100.00
69306;BME280;56427;51.580;4.656;2023-01-27T02:08:12;102506.56;;;4.45;100.00
69306;BME280;56427;51.580;4.656;2023-01-27T02:10:39;102502.50;;;4.38;100.00
69306;BME280;56427;51.580;4.656;2023-01-27T02:13:05;102502.38;;;4.42;100.00
69306;BME280;56427;51.580;4.656;2023-01-27T02:15:31;102507.34;;;4.47;100.00
69306;BME280;56427;51.580;4.656;2023-01-27T02:17:58;102516.06;;;4.43;100.00
69306;BME280;56427;51.580;4.656;2023-01-27T02:20:44;102512.19;;;4.30;100.00
69306;BME280;56427;51.580;4.656;2023-01-27T02:28:33;102510.41;;;4.32;100.00
69306;BME280;56427;51.580;4.656;2023-01-27T02:30:59;102512.13;;;4.31;100.00
69306;BME280;56427;51.580;4.656;2023-01-27T02:33:25;102510.28;;;4.36;100.00
69306;BME280;56427;51.580;4.656;2023-01-27T02:35:53;102515.59;;;4.30;100.00
69306;BME280;56427;51.580;4.656;2023-01-27T02:38:23;102516.56;;;4.26;100.00
69306;BME280;56427;51.580;4.656;2023-01-27T02:40:51;102513.19;;;4.24;100.00
69306;BME280;56427;51.580;4.656;2023-01-27T02:43:19;102520.09;;;4.22;100.00
69306;BME280;56427;51.580;4.656;2023-01-27T02:45:47;102516.63;;;4.24;100.00
69306;BME280;56427;51.580;4.656;2023-01-27T02:48:13;102521.56;;;4.31;100.00
69306;BME280;56427;51.580;4.656;2023-01-27T02:50:38;102514.13;;;4.21;100.00
69306;BME280;56427;51.580;4.656;2023-01-27T02:53:04;102513.22;;;4.22;100.00
69306;BME280;56427;51.580;4.656;2023-01-27T02:55:29;102514.22;;;4.18;100.00
69306;BME280;56427;51.580;4.656;2023-01-27T02:57:55;102523.69;;;4.18;100.00
69306;BME280;56427;51.580;4.656;2023-01-27T03:00:20;102520.38;;;4.13;100.00
69306;BME280;56427;51.580;4.656;2023-01-27T03:02:45;102528.34;;;4.03;100.00
69306;BME280;56427;51.580;4.656;2023-01-27T03:05:10;102534.50;;;3.98;100.00
69306;BME280;56427;51.580;4.656;2023-01-27T03:07:36;102530.50;;;3.87;100.00
69306;BME280;56427;51.580;4.656;2023-01-27T03:10:02;102539.81;;;3.92;100.00
69306;BME280;56427;51.580;4.656;2023-01-27T03:12:27;102538.22;;;3.87;100.00
69306;BME280;56427;51.580;4.656;2023-01-27T03:14:53;102547.44;;;3.95;100.00
69306;BME280;56427;51.580;4.656;2023-01-27T03:17:37;102545.22;;;3.82;100.00
69306;BME280;56427;51.580;4.656;2023-01-27T03:20:21;102543.66;;;3.77;100.00
69306;BME280;56427;51.580;4.656;2023-01-27T03:22:48;102543.66;;;3.77;100.00
69306;BME280;56427;51.580;4.656;2023-01-27T03:25:14;102547.94;;;3.76;100.00
69306;BME280;56427;51.580;4.656;2023-01-27T03:27:39;102543.69;;;3.75;100.00
69306;BME280;56427;51.580;4.656;2023-01-27T03:30:06;102541.06;;;3.78;100.00
69306;BME280;56427;51.580;4.656;2023-01-27T03:32:32;102543.63;;;3.78;100.00
69306;BME280;56427;51.580;4.656;2023-01-27T03:34:58;102542.97;;;3.70;100.00
69306;BME280;56427;51.580;4.656;2023-01-27T03:37:28;102554.84;;;3.74;100.00
69306;BME280;56427;51.580;4.656;2023-01-27T03:40:13;102553.16;;;3.73;100.00
69306;BME280;56427;51.580;4.656;2023-01-27T03:42:58;102550.84;;;3.64;100.00
69306;BME280;56427;51.580;4.656;2023-01-27T03:45:47;102552.34;;;3.71;100.00
69306;BME280;56427;51.580;4.656;2023-01-27T03:48:32;102555.13;;;3.63;100.00
69306;BME280;56427;51.580;4.656;2023-01-27T03:50:58;102552.50;;;3.65;100.00
69306;BME280;56427;51.580;4.656;2023-01-27T03:53:24;102558.44;;;3.68;100.00
69306;BME280;56427;51.580;4.656;2023-01-27T03:55:50;102555.13;;;3.63;100.00
69306;BME280;56427;51.580;4.656;2023-01-27T03:58:22;102559.34;;;3.66;100.00
69306;BME280;56427;51.580;4.656;2023-01-27T04:00:50;102562.81;;;3.63;100.00
69306;BME280;56427;51.580;4.656;2023-01-27T04:03:16;102563.03;;;3.56;100.00
69306;BME280;56427;51.580;4.656;2023-01-27T04:06:05;102566.31;;;3.61;100.00
69306;BME280;56427;51.580;4.656;2023-01-27T04:08:49;102567.13;;;3.63;100.00
69306;BME280;56427;51.580;4.656;2023-01-27T04:11:15;102566.59;;;3.83;100.00
69306;BME280;56427;51.580;4.656;2023-01-27T04:14:02;102569.66;;;3.64;100.00
69306;BME280;56427;51.580;4.656;2023-01-27T04:16:28;102576.00;;;3.51;100.00
69306;BME280;56427;51.580;4.656;2023-01-27T04:18:55;102567.28;;;3.57;100.00
69306;BME280;56427;51.580;4.656;2023-01-27T04:21:21;102575.44;;;3.38;100.00
69306;BME280;56427;51.580;4.656;2023-01-27T04:23:46;102584.84;;;3.39;100.00
69306;BME280;56427;51.580;4.656;2023-01-27T04:26:11;102582.38;;;3.35;100.00
69306;BME280;56427;51.580;4.656;2023-01-27T04:28:37;102579.75;;;3.38;100.00
69306;BME280;56427;51.580;4.656;2023-01-27T04:31:02;102590.09;;;3.35;100.00
69306;BME280;56427;51.580;4.656;2023-01-27T04:33:27;102581.41;;;3.39;100.00
69306;BME280;56427;51.580;4.656;2023-01-27T04:35:54;102594.41;;;3.33;100.00
69306;BME280;56427;51.580;4.656;2023-01-27T04:38:19;102590.94;;;3.34;100.00
69306;BME280;56427;51.580;4.656;2023-01-27T04:40:45;102598.56;;;3.37;100.00
69306;BME280;56427;51.580;4.656;2023-01-27T04:43:10;102595.34;;;3.28;100.00
69306;BME280;56427;51.580;4.656;2023-01-27T04:45:36;102581.41;;;3.39;100.00
69306;BME280;56427;51.580;4.656;2023-01-27T04:48:01;102594.53;;;3.28;100.00
69306;BME280;56427;51.580;4.656;2023-01-27T04:50:26;102607.34;;;3.28;100.00
69306;BME280;56427;51.580;4.656;2023-01-27T04:52:52;102607.63;;;3.16;100.00
69306;BME280;56427;51.580;4.656;2023-01-27T04:55:17;102613.75;;;3.10;100.00
69306;BME280;56427;51.580;4.656;2023-01-27T04:57:42;102622.25;;;3.12;100.00
69306;BME280;56427;51.580;4.656;2023-01-27T05:00:11;102625.09;;;3.01;100.00
69306;BME280;56427;51.580;4.656;2023-01-27T05:02:36;102620.81;;;3.00;100.00
69306;BME280;56427;51.580;4.656;2023-01-27T05:05:02;102618.19;;;3.03;100.00
69306;BME280;56427;51.580;4.656;2023-01-27T05:07:31;102617.34;;;3.03;100.00
69306;BME280;56427;51.580;4.656;2023-01-27T05:09:56;102625.06;;;3.03;100.00
69306;BME280;56427;51.580;4.656;2023-01-27T05:12:22;102623.22;;;3.08;100.00
69306;BME280;56427;51.580;4.656;2023-01-27T05:14:47;102630.03;;;3.09;100.00
69306;BME280;56427;51.580;4.656;2023-01-27T05:17:12;102625.94;;;3.00;100.00
69306;BME280;56427;51.580;4.656;2023-01-27T05:19:38;102621.66;;;3.01;100.00
69306;BME280;56427;51.580;4.656;2023-01-27T05:22:03;102619.72;;;3.10;100.00
69306;BME280;56427;51.580;4.656;2023-01-27T05:24:29;102624.22;;;3.01;100.00
69306;BME280;56427;51.580;4.656;2023-01-27T05:26:54;102635.41;;;2.98;100.00
69306;BME280;56427;51.580;4.656;2023-01-27T05:29:19;102631.03;;;3.02;100.00
69306;BME280;56427;51.580;4.656;2023-01-27T05:31:44;102632.78;;;3.01;100.00
69306;BME280;56427;51.580;4.656;2023-01-27T05:34:10;102628.53;;;2.99;100.00
69306;BME280;56427;51.580;4.656;2023-01-27T05:36:35;102634.38;;;3.05;100.00
69306;BME280;56427;51.580;4.656;2023-01-27T05:39:00;102635.19;;;3.07;100.00
69306;BME280;56427;51.580;4.656;2023-01-27T05:41:28;102629.41;;;2.98;100.00
69306;BME280;56427;51.580;4.656;2023-01-27T05:43:55;102637.03;;;3.01;100.00
69306;BME280;56427;51.580;4.656;2023-01-27T05:46:26;102632.81;;;3.00;100.00
69306;BME280;56427;51.580;4.656;2023-01-27T05:48:56;102643.13;;;2.97;100.00
69306;BME280;56427;51.580;4.656;2023-01-27T05:51:23;102654.19;;;2.99;100.00
69306;BME280;56427;51.580;4.656;2023-01-27T05:53:49;102647.34;;;2.99;100.00
69306;BME280;56427;51.580;4.656;2023-01-27T05:56:17;102637.03;;;3.01;100.00
69306;BME280;56427;51.580;4.656;2023-01-27T05:58:43;102655.81;;;3.04;100.00
69306;BME280;56427;51.580;4.656;2023-01-27T06:01:11;102649.84;;;3.02;100.00
69306;BME280;56427;51.580;4.656;2023-01-27T06:03:40;102647.94;;;3.10;100.00
69306;BME280;56427;51.580;4.656;2023-01-27T06:06:07;102656.34;;;3.17;100.00
69306;BME280;56427;51.580;4.656;2023-01-27T06:08:34;102659.09;;;3.09;100.00
69306;BME280;56427;51.580;4.656;2023-01-27T06:11:00;102647.84;;;3.15;100.00
69306;BME280;56427;51.580;4.656;2023-01-27T06:13:25;102657.69;;;3.34;100.00
69306;BME280;56427;51.580;4.656;2023-01-27T06:15:51;102657.00;;;3.25;100.00
69306;BME280;56427;51.580;4.656;2023-01-27T06:18:18;102656.94;;;3.28;100.00
69306;BME280;56427;51.580;4.656;2023-01-27T06:20:44;102655.28;;;3.27;100.00
69306;BME280;56427;51.580;4.656;2023-01-27T06:23:11;102666.97;;;3.39;100.00
69306;BME280;56427;51.580;4.656;2023-01-27T06:25:47;102664.53;;;3.33;100.00
69306;BME280;56427;51.580;4.656;2023-01-27T06:28:14;102668.88;;;3.31;100.00
69306;BME280;56427;51.580;4.656;2023-01-27T06:30:40;102663.47;;;3.42;100.00
69306;BME280;56427;51.580;4.656;2023-01-27T06:33:06;102667.00;;;3.38;100.00
69306;BME280;56427;51.580;4.656;2023-01-27T06:35:34;102662.75;;;3.37;100.00
69306;BME280;56427;51.580;4.656;2023-01-27T06:38:00;102677.22;;;3.41;100.00
69306;BME280;56427;51.580;4.656;2023-01-27T06:40:27;102656.69;;;3.41;100.00
69306;BME280;56427;51.580;4.656;2023-01-27T06:42:54;102664.50;;;3.35;100.00
69306;BME280;56427;51.580;4.656;2023-01-27T06:45:19;102675.34;;;3.47;100.00
69306;BME280;56427;51.580;4.656;2023-01-27T06:47:44;102682.38;;;3.39;100.00
69306;BME280;56427;51.580;4.656;2023-01-27T06:50:10;102676.34;;;3.40;100.00
69306;BME280;56427;51.580;4.656;2023-01-27T06:52:36;102674.72;;;3.38;100.00
69306;BME280;56427;51.580;4.656;2023-01-27T06:55:02;102680.47;;;3.47;100.00
69306;BME280;56427;51.580;4.656;2023-01-27T06:57:28;102680.59;;;3.41;100.00
69306;BME280;56427;51.580;4.656;2023-01-27T06:59:54;102683.91;;;3.46;100.00
69306;BME280;56427;51.580;4.656;2023-01-27T07:02:20;102683.91;;;3.46;100.00
69306;BME280;56427;51.580;4.656;2023-01-27T07:04:46;102685.38;;;3.57;100.00
69306;BME280;56427;51.580;4.656;2023-01-27T07:07:11;102691.44;;;3.54;100.00
69306;BME280;56427;51.580;4.656;2023-01-27T07:09:37;102684.47;;;3.59;100.00
69306;BME280;56427;51.580;4.656;2023-01-27T07:12:02;102678.56;;;3.56;100.00
69306;BME280;56427;51.580;4.656;2023-01-27T07:14:28;102683.00;;;3.49;100.00
69306;BME280;56427;51.580;4.656;2023-01-27T07:16:53;102684.53;;;3.56;100.00
69306;BME280;56427;51.580;4.656;2023-01-27T07:19:19;102694.66;;;3.62;100.00
69306;BME280;56427;51.580;4.656;2023-01-27T07:21:44;102702.34;;;3.64;100.00
69306;BME280;56427;51.580;4.656;2023-01-27T07:24:10;102689.66;;;3.56;100.00
69306;BME280;56427;51.580;4.656;2023-01-27T07:26:35;102697.41;;;3.55;100.00
69306;BME280;56427;51.580;4.656;2023-01-27T07:29:00;102698.34;;;3.52;100.00
69306;BME280;56427;51.580;4.656;2023-01-27T07:31:26;102695.66;;;3.55;100.00
69306;BME280;56427;51.580;4.656;2023-01-27T07:33:52;102699.13;;;3.54;100.00
69306;BME280;56427;51.580;4.656;2023-01-27T07:36:18;102698.91;;;3.63;100.00
69306;BME280;56427;51.580;4.656;2023-01-27T07:38:43;102701.56;;;3.60;100.00
69306;BME280;56427;51.580;4.656;2023-01-27T07:41:08;102703.31;;;3.58;100.00
69306;BME280;56427;51.580;4.656;2023-01-27T07:43:34;102700.69;;;3.60;100.00
69306;BME280;56427;51.580;4.656;2023-01-27T07:45:59;102698.72;;;3.71;100.00
69306;BME280;56427;51.580;4.656;2023-01-27T07:48:24;102699.63;;;3.70;100.00
69306;BME280;56427;51.580;4.656;2023-01-27T07:50:50;102693.03;;;3.58;100.00
69306;BME280;56427;51.580;4.656;2023-01-27T07:53:15;102696.19;;;3.69;100.00
69306;BME280;56427;51.580;4.656;2023-01-27T07:55:41;102698.69;;;3.73;100.00
69306;BME280;56427;51.580;4.656;2023-01-27T07:58:07;102704.66;;;3.73;100.00
69306;BME280;56427;51.580;4.656;2023-01-27T08:00:33;102705.59;;;3.71;100.00
69306;BME280;56427;51.580;4.656;2023-01-27T08:02:59;102711.38;;;3.79;100.00
69306;BME280;56427;51.580;4.656;2023-01-27T08:05:26;102708.25;;;3.66;100.00
69306;BME280;56427;51.580;4.656;2023-01-27T08:07:54;102712.19;;;3.81;100.00
69306;BME280;56427;51.580;4.656;2023-01-27T08:10:20;102715.69;;;3.78;100.00
69306;BME280;56427;51.580;4.656;2023-01-27T08:12:46;102706.16;;;3.83;100.00
69306;BME280;56427;51.580;4.656;2023-01-27T08:15:11;102705.97;;;3.90;100.00
69306;BME280;56427;51.580;4.656;2023-01-27T08:17:37;102708.72;;;3.83;100.00
69306;BME280;56427;51.580;4.656;2023-01-27T08:20:03;102712.22;;;3.79;100.00
69306;BME280;56427;51.580;4.656;2023-01-27T08:22:29;102718.09;;;3.84;100.00
69306;BME280;56427;51.580;4.656;2023-01-27T08:24:55;102721.81;;;3.73;100.00
69306;BME280;56427;51.580;4.656;2023-01-27T08:27:21;102722.63;;;3.73;100.00
69306;BME280;56427;51.580;4.656;2023-01-27T08:29:46;102725.88;;;3.81;100.00
69306;BME280;56427;51.580;4.656;2023-01-27T08:32:12;102717.84;;;3.95;100.00
69306;BME280;56427;51.580;4.656;2023-01-27T08:34:38;102730.78;;;3.91;100.00
69306;BME280;56427;51.580;4.656;2023-01-27T08:37:04;102727.41;;;3.89;100.00
69306;BME280;56427;51.580;4.656;2023-01-27T08:39:30;102738.28;;;4.00;100.00
69306;BME280;56427;51.580;4.656;2023-01-27T08:41:56;102728.88;;;3.99;100.00
69306;BME280;56427;51.580;4.656;2023-01-27T08:44:21;102725.06;;;4.14;100.00
69306;BME280;56427;51.580;4.656;2023-01-27T08:46:48;102737.41;;;3.99;100.00
69306;BME280;56427;51.580;4.656;2023-01-27T08:49:13;102748.53;;;4.01;100.00
69306;BME280;56427;51.580;4.656;2023-01-27T08:51:39;102748.72;;;3.92;100.00
69306;BME280;56427;51.580;4.656;2023-01-27T08:54:05;102747.94;;;3.90;100.00
69306;BME280;56427;51.580;4.656;2023-01-27T08:56:31;102752.91;;;3.96;100.00
69306;BME280;56427;51.580;4.656;2023-01-27T08:58:56;102757.28;;;3.93;100.00
69306;BME280;56427;51.580;4.656;2023-01-27T09:01:22;102753.88;;;3.92;100.00
69306;BME280;56427;51.580;4.656;2023-01-27T09:03:47;102749.81;;;3.83;100.00
69306;BME280;56427;51.580;4.656;2023-01-27T09:06:14;102749.38;;;4.00;100.00
69306;BME280;56427;51.580;4.656;2023-01-27T09:08:40;102744.47;;;3.91;100.00
69306;BME280;56427;51.580;4.656;2023-01-27T09:11:12;102745.34;;;3.92;100.00
69306;BME280;56427;51.580;4.656;2023-01-27T09:13:37;102749.25;;;4.07;100.00
69306;BME280;56427;51.580;4.656;2023-01-27T09:16:02;102760.22;;;4.13;100.00
69306;BME280;56427;51.580;4.656;2023-01-27T09:18:28;102753.00;;;3.93;100.00
69306;BME280;56427;51.580;4.656;2023-01-27T09:20:53;102760.50;;;4.01;100.00
69306;BME280;56427;51.580;4.656;2023-01-27T09:23:19;102758.78;;;4.01;100.00
69306;BME280;56427;51.580;4.656;2023-01-27T09:25:44;102759.34;;;4.13;100.00
69306;BME280;56427;51.580;4.656;2023-01-27T09:28:09;102750.28;;;3.98;100.00
69306;BME280;56427;51.580;4.656;2023-01-27T09:30:44;102760.41;;;4.05;100.00
69306;BME280;56427;51.580;4.656;2023-01-27T09:33:10;102752.81;;;3.99;100.00
69306;BME280;56427;51.580;4.656;2023-01-27T09:35:48;102759.16;;;4.20;100.00
69306;BME280;56427;51.580;4.656;2023-01-27T09:38:19;102763.53;;;4.17;100.00
69306;BME280;56427;51.580;4.656;2023-01-27T09:41:19;102762.88;;;4.09;100.00
69306;BME280;56427;51.580;4.656;2023-01-27T09:52:17;102774.31;;;3.97;100.00
69306;BME280;56427;51.580;4.656;2023-01-27T09:55:00;102769.63;;;4.13;100.00
69306;BME280;56427;51.580;4.656;2023-01-27T09:57:37;102780.03;;;4.08;100.00
69306;BME280;56427;51.580;4.656;2023-01-27T10:00:20;102782.44;;;4.14;100.00
69306;BME280;56427;51.580;4.656;2023-01-27T10:03:15;102777.41;;;4.11;100.00
69306;BME280;56427;51.580;4.656;2023-01-27T10:06:28;102782.41;;;4.16;100.00
69306;BME280;56427;51.580;4.656;2023-01-27T10:09:35;102783.19;;;4.19;100.00
69306;BME280;56427;51.580;4.656;2023-01-27T10:12:19;102785.91;;;4.13;100.00
69306;BME280;56427;51.580;4.656;2023-01-27T10:18:02;102772.25;;;4.11;100.00
69306;BME280;56427;51.580;4.656;2023-01-27T10:20:42;102780.28;;;3.97;100.00
69306;BME280;56427;51.580;4.656;2023-01-27T10:23:23;102783.91;;;3.90;100.00
69306;BME280;56427;51.580;4.656;2023-01-27T10:26:02;102781.13;;;3.98;100.00
69306;BME280;56427;51.580;4.656;2023-01-27T10:28:30;102771.88;;;3.91;100.00
69306;BME280;56427;51.580;4.656;2023-01-27T10:31:01;102780.75;;;3.79;100.00
69306;BME280;56427;51.580;4.656;2023-01-27T10:36:20;102784.81;;;3.87;100.00
69306;BME280;56427;51.580;4.656;2023-01-27T10:39:02;102775.69;;;3.74;100.00
69306;BME280;56427;51.580;4.656;2023-01-27T10:41:40;102781.53;;;3.81;100.00
69306;BME280;56427;51.580;4.656;2023-01-27T10:47:05;102786.72;;;3.79;100.00
69306;BME280;56427;51.580;4.656;2023-01-27T10:49:38;102785.91;;;3.77;100.00
69306;BME280;56427;51.580;4.656;2023-01-27T10:54:41;102786.28;;;3.96;100.00
69306;BME280;56427;51.580;4.656;2023-01-27T10:57:20;102795.88;;;3.90;100.00
69306;BME280;56427;51.580;4.656;2023-01-27T10:59:55;102790.53;;;3.99;100.00
69306;BME280;56427;51.580;4.656;2023-01-27T11:02:37;102792.56;;;3.84;100.00
69306;BME280;56427;51.580;4.656;2023-01-27T11:05:15;102783.47;;;3.71;100.00
69306;BME280;56427;51.580;4.656;2023-01-27T11:07:46;102789.56;;;3.67;100.00
69306;BME280;56427;51.580;4.656;2023-01-27T11:10:17;102789.63;;;3.64;100.00
69306;BME280;56427;51.580;4.656;2023-01-27T11:12:53;102792.88;;;3.72;100.00
69306;BME280;56427;51.580;4.656;2023-01-27T11:15:31;102786.44;;;3.92;100.00
69306;BME280;56427;51.580;4.656;2023-01-27T11:20:37;102781.44;;;3.85;100.00
69306;BME280;56427;51.580;4.656;2023-01-27T11:23:23;102782.47;;;3.78;100.00
69306;BME280;56427;51.580;4.656;2023-01-27T11:25:58;102769.28;;;3.55;100.00
69306;BME280;56427;51.580;4.656;2023-01-27T11:31:44;102775.06;;;3.64;100.00
69306;BME280;56427;51.580;4.656;2023-01-27T11:34:38;102765.78;;;3.59;100.00
69306;BME280;56427;51.580;4.656;2023-01-27T11:37:24;102765.63;;;3.65;100.00
69306;BME280;56427;51.580;4.656;2023-01-27T11:39:51;102773.00;;;3.80;100.00
69306;BME280;56427;51.580;4.656;2023-01-27T11:42:16;102770.75;;;4.02;100.00
69306;BME280;56427;51.580;4.656;2023-01-27T11:44:42;102772.91;;;3.85;100.00
69306;BME280;56427;51.580;4.656;2023-01-27T11:47:22;102769.66;;;3.77;100.00
69306;BME280;56427;51.580;4.656;2023-01-27T11:49:50;102769.75;;;3.72;100.00
69306;BME280;56427;51.580;4.656;2023-01-27T11:52:18;102765.50;;;3.71;100.00
69306;BME280;56427;51.580;4.656;2023-01-27T11:57:21;102756.13;;;3.70;100.00
69306;BME280;56427;51.580;4.656;2023-01-27T11:59:49;102766.25;;;3.75;100.00
69306;BME280;56427;51.580;4.656;2023-01-27T12:02:35;102761.81;;;3.81;100.00
69306;BME280;56427;51.580;4.656;2023-01-27T12:05:07;102764.56;;;3.75;100.00
69306;BME280;56427;51.580;4.656;2023-01-27T12:12:48;102757.28;;;3.93;100.00
69306;BME280;56427;51.580;4.656;2023-01-27T12:15:15;102746.81;;;4.00;100.00
69306;BME280;56427;51.580;4.656;2023-01-27T12:17:45;102750.41;;;3.95;100.00
69306;BME280;56427;51.580;4.656;2023-01-27T12:22:54;102744.88;;;3.74;100.00
69306;BME280;56427;51.580;4.656;2023-01-27T12:25:30;102743.44;;;3.62;100.00
69306;BME280;56427;51.580;4.656;2023-01-27T12:27:59;102738.25;;;3.65;100.00
69306;BME280;56427;51.580;4.656;2023-01-27T12:30:29;102738.25;;;3.65;100.00
69306;BME280;56427;51.580;4.656;2023-01-27T12:32:57;102736.72;;;3.57;100.00
69306;BME280;56427;51.580;4.656;2023-01-27T12:35:29;102740.75;;;3.68;100.00
69306;BME280;56427;51.580;4.656;2023-01-27T12:38:04;102734.59;;;3.74;100.00
69306;BME280;56427;51.580;4.656;2023-01-27T12:40:31;102736.06;;;3.84;100.00
69306;BME280;56427;51.580;4.656;2023-01-27T12:45:31;102739.53;;;3.83;100.00
69306;BME280;56427;51.580;4.656;2023-01-27T12:50:42;102736.25;;;3.78;100.00
69306;BME280;56427;51.580;4.656;2023-01-27T12:53:26;102730.06;;;3.85;100.00
69306;BME280;56427;51.580;4.656;2023-01-27T12:56:17;102735.84;;;3.94;100.00
69306;BME280;56427;51.580;4.656;2023-01-27T13:01:32;102737.91;;;3.79;100.00
69306;BME280;56427;51.580;4.656;2023-01-27T13:04:01;102740.53;;;3.76;100.00
69306;BME280;56427;51.580;4.656;2023-01-27T13:06:37;102733.34;;;3.91;100.00
69306;BME280;56427;51.580;4.656;2023-01-27T13:11:45;102732.94;;;3.72;100.00
69306;BME280;56427;51.580;4.656;2023-01-27T13:14:15;102728.47;;;3.80;100.00
69306;BME280;56427;51.580;4.656;2023-01-27T13:16:57;102733.19;;;3.62;100.00
69306;BME280;56427;51.580;4.656;2023-01-27T13:19:43;102738.22;;;3.67;100.00
69306;BME280;56427;51.580;4.656;2023-01-27T13:22:16;102731.28;;;3.71;100.00
69306;BME280;56427;51.580;4.656;2023-01-27T13:24:43;102734.75;;;3.68;100.00
69306;BME280;56427;51.580;4.656;2023-01-27T13:27:16;102735.41;;;3.76;100.00
69306;BME280;56427;51.580;4.656;2023-01-27T13:29:49;102729.72;;;3.63;100.00
69306;BME280;56427;51.580;4.656;2023-01-27T13:32:23;102729.47;;;3.74;100.00
69306;BME280;56427;51.580;4.656;2023-01-27T13:37:42;102726.94;;;3.73;100.00
69306;BME280;56427;51.580;4.656;2023-01-27T13:45:39;102721.53;;;3.85;100.00
69306;BME280;56427;51.580;4.656;2023-01-27T13:48:13;102725.19;;;4.09;100.00
69306;BME280;56427;51.580;4.656;2023-01-27T13:50:48;102724.22;;;4.13;100.00
69306;BME280;56427;51.580;4.656;2023-01-27T13:53:17;102730.03;;;3.87;100.00
69306;BME280;56427;51.580;4.656;2023-01-27T13:56:02;102732.69;;;3.82;100.00
69306;BME280;56427;51.580;4.656;2023-01-27T14:09:49;102736.06;;;3.84;100.00
69306;BME280;56427;51.580;4.656;2023-01-27T14:12:37;102742.09;;;3.83;100.00
69306;BME280;56427;51.580;4.656;2023-01-27T14:20:50;102741.91;;;3.91;100.00
69306;BME280;56427;51.580;4.656;2023-01-27T14:23:32;102747.06;;;3.90;100.00